createdAt,value
2019-02-05T00:02:12.895Z,7.33
2019-02-05T00:04:43.709Z,7.00
2019-02-05T00:07:14.505Z,7.72
2019-02-05T00:09:46.411Z,7.20
2019-02-05T00:12:17.186Z,6.83
2019-02-05T00:14:48.020Z,6.53
2019-02-05T00:17:19.004Z,6.45
2019-02-05T00:19:49.776Z,6.22
2019-02-05T00:22:20.980Z,7.83
2019-02-05T00:24:51.843Z,6.63
2019-02-05T00:27:22.620Z,8.00
2019-02-05T00:29:53.513Z,8.05
2019-02-05T00:32:24.367Z,7.90
2019-02-05T00:34:55.134Z,8.40
2019-02-05T00:37:25.976Z,9.45
2019-02-05T00:39:57.010Z,9.45
2019-02-05T00:42:27.910Z,9.53
2019-02-05T00:44:58.791Z,9.05
2019-02-05T00:47:32.237Z,8.48
2019-02-05T00:50:02.462Z,9.10
2019-02-05T00:52:33.526Z,9.05
2019-02-05T00:55:07.692Z,10.00
2019-02-05T00:57:38.951Z,9.93
2019-02-05T01:00:20.463Z,9.45
2019-02-05T01:02:51.823Z,10.50
2019-02-05T01:05:22.884Z,10.50
2019-02-05T01:07:54.024Z,9.30
2019-02-05T01:10:25.610Z,9.90
2019-02-05T01:12:57.737Z,10.30
2019-02-05T01:15:28.668Z,10.63
2019-02-05T01:17:59.786Z,10.30
2019-02-05T01:20:30.806Z,9.73
2019-02-05T01:23:01.818Z,10.17
2019-02-05T01:25:33.149Z,9.33
2019-02-05T01:28:04.476Z,11.95
2019-02-05T01:30:35.348Z,10.10
2019-02-05T01:33:06.901Z,10.18
2019-02-05T01:35:37.754Z,10.32
2019-02-05T01:38:09.049Z,9.93
2019-02-05T01:40:39.999Z,9.58
2019-02-05T01:43:11.832Z,10.13
2019-02-05T01:45:43.272Z,9.87
2019-02-05T01:48:14.116Z,10.82
2019-02-05T01:50:45.332Z,9.65
2019-02-05T01:53:17.633Z,9.73
2019-02-05T01:55:48.909Z,10.10
2019-02-05T01:58:19.664Z,9.35
2019-02-05T02:00:50.648Z,9.98
2019-02-05T02:03:21.698Z,10.28
2019-02-05T02:05:52.916Z,10.78
2019-02-05T02:08:23.759Z,10.30
2019-02-05T02:10:54.951Z,10.32
2019-02-05T02:13:25.995Z,11.85
2019-02-05T02:15:56.932Z,10.43
2019-02-05T02:18:27.739Z,10.70
2019-02-05T02:20:58.605Z,9.80
2019-02-05T02:23:29.525Z,10.00
2019-02-05T02:26:00.371Z,12.33
2019-02-05T02:28:31.336Z,12.97
2019-02-05T02:31:02.599Z,10.82
2019-02-05T02:33:33.519Z,12.82
2019-02-05T02:36:05.351Z,12.28
2019-02-05T02:38:36.174Z,10.98
2019-02-05T02:41:06.964Z,11.03
2019-02-05T02:43:38.331Z,12.18
2019-02-05T02:46:09.286Z,11.50
2019-02-05T02:48:41.281Z,14.43
2019-02-05T02:51:12.200Z,13.03
2019-02-05T02:53:43.682Z,13.40
2019-02-05T02:56:14.884Z,15.00
2019-02-05T02:58:45.804Z,11.65
2019-02-05T03:01:16.588Z,13.25
2019-02-05T03:03:47.496Z,14.25
2019-02-05T03:06:18.491Z,13.18
2019-02-05T03:08:49.527Z,11.70
2019-02-05T03:11:20.700Z,12.77
2019-02-05T03:13:52.677Z,12.80
2019-02-05T03:16:23.638Z,14.85
2019-02-05T03:18:54.424Z,15.18
2019-02-05T03:21:25.710Z,16.97
2019-02-05T03:23:56.647Z,16.02
2019-02-05T03:26:27.882Z,19.73
2019-02-05T03:28:59.096Z,16.65
2019-02-05T03:31:29.907Z,20.25
2019-02-05T03:34:01.913Z,21.77
2019-02-05T03:36:32.823Z,18.52
2019-02-05T03:39:05.385Z,20.65
2019-02-05T03:41:39.368Z,21.70
2019-02-05T03:44:10.637Z,18.70
2019-02-05T03:46:41.845Z,19.65
2019-02-05T03:49:13.952Z,22.10
2019-02-05T03:52:14.767Z,21.55
2019-02-05T03:55:21.810Z,18.30
2019-02-05T03:58:17.982Z,18.07
2019-02-05T04:01:25.849Z,16.67
2019-02-05T04:04:38.059Z,19.50
2019-02-05T04:07:30.919Z,17.92
2019-02-05T04:10:39.270Z,19.30
2019-02-05T04:13:53.171Z,17.62
2019-02-05T04:16:52.445Z,18.95
2019-02-05T04:19:50.053Z,18.62
2019-02-05T04:22:43.364Z,19.82
2019-02-05T04:25:58.095Z,17.12
2019-02-05T04:28:54.147Z,18.02
2019-02-05T04:31:46.307Z,19.10
2019-02-05T04:35:13.602Z,19.30
2019-02-05T04:38:17.662Z,21.12
2019-02-05T04:41:14.107Z,20.80
2019-02-05T04:43:56.695Z,20.37
2019-02-05T04:46:50.769Z,20.63
2019-02-05T04:49:51.809Z,20.70
2019-02-05T04:52:55.335Z,22.50
2019-02-05T04:55:36.394Z,23.12
2019-02-05T04:58:34.033Z,21.25
2019-02-05T05:01:19.260Z,20.30
2019-02-05T05:04:16.453Z,18.90
2019-02-05T05:07:17.258Z,20.25
2019-02-05T05:09:50.799Z,21.02
2019-02-05T05:12:21.853Z,22.00
2019-02-05T05:14:52.838Z,21.48
2019-02-05T05:17:23.715Z,22.80
2019-02-05T05:19:55.159Z,23.70
2019-02-05T05:22:26.345Z,25.20
2019-02-05T05:24:58.178Z,21.60
2019-02-05T05:27:29.359Z,21.93
2019-02-05T05:30:00.395Z,22.85
2019-02-05T05:32:31.691Z,24.65
2019-02-05T05:35:02.469Z,24.30
2019-02-05T05:37:33.205Z,21.70
2019-02-05T05:40:04.651Z,21.68
2019-02-05T05:42:35.730Z,22.00
2019-02-05T05:45:10.522Z,23.00
2019-02-05T05:47:41.270Z,21.90
2019-02-05T05:50:14.227Z,22.27
2019-02-05T05:52:45.153Z,24.00
2019-02-05T05:55:16.229Z,21.33
2019-02-05T05:57:47.347Z,21.90
2019-02-05T06:00:19.557Z,21.82
2019-02-05T06:02:51.359Z,23.18
2019-02-05T06:05:22.534Z,23.98
2019-02-05T06:07:53.798Z,23.35
2019-02-05T06:10:24.535Z,22.67
2019-02-05T06:12:55.396Z,23.05
2019-02-05T06:15:26.119Z,20.43
2019-02-05T06:17:56.867Z,21.17
2019-02-05T06:20:28.135Z,21.07
2019-02-05T06:22:59.023Z,22.02
2019-02-05T06:25:29.983Z,21.40
2019-02-05T06:28:00.801Z,22.20
2019-02-05T06:30:31.955Z,20.95
2019-02-05T06:33:03.080Z,21.45
2019-02-05T06:35:34.193Z,20.57
2019-02-05T06:38:05.071Z,20.52
2019-02-05T06:40:36.839Z,22.30
2019-02-05T06:43:07.674Z,20.57
2019-02-05T06:45:41.463Z,19.37
2019-02-05T06:48:11.662Z,19.85
2019-02-05T06:50:42.513Z,20.30
2019-02-05T06:53:13.391Z,22.07
2019-02-05T06:55:44.117Z,19.85
2019-02-05T06:58:15.294Z,19.95
2019-02-05T07:00:46.079Z,18.55
2019-02-05T07:03:17.290Z,19.77
2019-02-05T07:05:48.107Z,18.90
2019-02-05T07:08:18.821Z,22.13
2019-02-05T07:10:49.678Z,27.32
2019-02-05T07:13:20.567Z,28.25
2019-02-05T07:15:51.389Z,24.43
2019-02-05T07:18:22.468Z,20.40
2019-02-05T07:20:53.746Z,20.30
2019-02-05T07:23:24.466Z,24.72
2019-02-05T07:25:56.586Z,21.13
2019-02-05T07:28:27.327Z,23.02
2019-02-05T07:30:58.610Z,18.90
2019-02-05T07:33:30.183Z,20.95
2019-02-05T07:36:01.035Z,20.40
2019-02-05T07:38:31.758Z,20.27
2019-02-05T07:41:02.936Z,19.20
2019-02-05T07:43:34.035Z,21.57
2019-02-05T07:46:05.666Z,20.55
2019-02-05T07:48:36.851Z,24.47
2019-02-05T07:51:07.563Z,18.48
2019-02-05T07:53:38.331Z,20.13
2019-02-05T07:56:09.554Z,20.02
2019-02-05T07:58:40.583Z,17.42
2019-02-05T08:01:11.642Z,17.85
2019-02-05T08:03:42.475Z,17.75
2019-02-05T08:06:13.648Z,22.55
2019-02-05T08:08:45.734Z,19.75
2019-02-05T08:11:16.569Z,23.20
2019-02-05T08:15:27.829Z,29.07
2019-02-05T08:17:59.068Z,38.48
2019-02-05T08:20:30.213Z,32.70
2019-02-05T08:23:01.194Z,20.95
2019-02-05T08:25:33.216Z,20.27
2019-02-05T08:28:05.691Z,21.05
2019-02-05T08:30:39.710Z,20.45
2019-02-05T08:33:11.167Z,20.57
2019-02-05T08:35:42.118Z,21.37
2019-02-05T08:38:13.145Z,18.92
2019-02-05T08:40:44.402Z,19.10
2019-02-05T08:43:15.280Z,19.95
2019-02-05T08:45:56.260Z,17.62
2019-02-05T08:48:19.110Z,17.17
2019-02-05T08:50:49.876Z,17.48
2019-02-05T08:53:21.040Z,19.07
2019-02-05T08:55:53.271Z,16.32
2019-02-05T08:58:31.264Z,18.55
2019-02-05T09:00:56.506Z,21.23
2019-02-05T09:03:29.189Z,16.47
2019-02-05T09:05:59.987Z,16.77
2019-02-05T09:08:30.803Z,16.67
2019-02-05T09:11:01.835Z,18.62
2019-02-05T09:13:33.611Z,17.03
2019-02-05T09:16:04.747Z,16.42
2019-02-05T09:18:36.627Z,20.17
2019-02-05T09:21:07.789Z,17.95
2019-02-05T09:23:39.331Z,20.37
2019-02-05T09:26:10.109Z,16.73
2019-02-05T09:28:41.147Z,16.77
2019-02-05T09:31:11.914Z,18.55
2019-02-05T09:33:42.782Z,15.68
2019-02-05T09:36:13.546Z,17.95
2019-02-05T09:38:44.441Z,17.82
2019-02-05T09:41:16.370Z,17.62
2019-02-05T09:43:47.350Z,18.27
2019-02-05T09:46:18.290Z,17.75
2019-02-05T09:48:49.027Z,17.27
2019-02-05T09:51:19.702Z,17.55
2019-02-05T09:53:50.592Z,19.25
2019-02-05T09:56:21.371Z,16.07
2019-02-05T09:58:52.207Z,16.90
2019-02-05T10:01:23.363Z,15.45
2019-02-05T10:03:54.186Z,17.80
2019-02-05T10:06:25.267Z,18.35
2019-02-05T10:08:56.631Z,17.73
2019-02-05T10:11:27.671Z,17.95
2019-02-05T10:13:58.434Z,17.27
2019-02-05T10:16:29.598Z,16.15
2019-02-05T10:19:00.382Z,17.07
2019-02-05T10:21:31.623Z,16.13
2019-02-05T10:24:02.351Z,16.50
2019-02-05T10:26:33.239Z,16.48
2019-02-05T10:29:04.457Z,16.45
2019-02-05T10:31:35.352Z,15.55
2019-02-05T10:34:06.380Z,17.23
2019-02-05T10:36:37.318Z,15.80
2019-02-05T10:39:10.353Z,16.67
2019-02-05T10:41:41.513Z,15.57
2019-02-05T10:44:13.582Z,16.55
2019-02-05T10:46:45.240Z,16.25
2019-02-05T10:49:16.355Z,16.80
2019-02-05T10:51:47.118Z,17.35
2019-02-05T10:54:17.871Z,16.70
2019-02-05T10:56:48.653Z,17.52
2019-02-05T10:59:19.558Z,18.62
2019-02-05T11:01:50.677Z,17.50
2019-02-05T11:04:21.809Z,17.63
2019-02-05T11:06:52.619Z,18.17
2019-02-05T11:09:23.413Z,18.48
2019-02-05T11:11:54.118Z,18.42
2019-02-05T11:14:24.975Z,18.62
2019-02-05T11:16:56.609Z,17.73
2019-02-05T11:19:27.514Z,17.97
2019-02-05T11:21:58.615Z,17.90
2019-02-05T11:24:29.715Z,18.23
2019-02-05T11:27:00.839Z,18.15
2019-02-05T11:29:31.640Z,17.70
2019-02-05T11:32:02.862Z,18.62
2019-02-05T11:34:33.693Z,18.05
2019-02-05T11:37:04.592Z,18.50
2019-02-05T11:39:35.544Z,18.37
2019-02-05T11:42:07.043Z,18.80
2019-02-05T11:44:37.764Z,18.07
2019-02-05T11:47:08.980Z,19.03
2019-02-05T11:49:39.832Z,19.03
2019-02-05T11:52:10.518Z,18.07
2019-02-05T11:54:41.350Z,17.30
2019-02-05T11:57:12.227Z,19.23
2019-02-05T11:59:43.343Z,17.67
2019-02-05T12:02:14.686Z,19.90
2019-02-05T12:04:45.531Z,17.27
2019-02-05T12:07:16.525Z,17.15
2019-02-05T12:09:47.662Z,17.92
2019-02-05T12:12:18.811Z,18.90
2019-02-05T12:14:50.556Z,18.10
2019-02-05T12:17:21.787Z,17.75
2019-02-05T12:19:55.528Z,19.77
2019-02-05T12:22:25.031Z,18.70
2019-02-05T12:24:55.848Z,18.30
2019-02-05T12:27:27.625Z,18.67
2019-02-05T12:29:58.839Z,19.40
2019-02-05T12:32:29.717Z,18.87
2019-02-05T12:35:00.597Z,19.17
2019-02-05T12:37:31.315Z,19.25
2019-02-05T12:40:02.035Z,18.80
2019-02-05T12:42:32.852Z,18.77
2019-02-05T12:45:05.167Z,18.03
2019-02-05T12:47:35.986Z,18.97
2019-02-05T12:50:09.887Z,19.20
2019-02-05T12:52:41.038Z,20.35
2019-02-05T12:55:13.908Z,19.70
2019-02-05T12:57:44.868Z,19.40
2019-02-05T13:00:19.675Z,17.80
2019-02-05T13:02:50.683Z,18.30
2019-02-05T13:05:21.920Z,18.40
2019-02-05T13:07:52.730Z,17.27
2019-02-05T13:10:26.388Z,17.65
2019-02-05T13:12:58.252Z,16.77
2019-02-05T13:15:29.149Z,17.73
2019-02-05T13:17:59.923Z,16.87
2019-02-05T13:20:30.800Z,15.63
2019-02-05T13:23:03.843Z,15.40
2019-02-05T13:25:35.294Z,15.48
2019-02-05T13:28:08.418Z,16.90
2019-02-05T13:30:39.707Z,16.10
2019-02-05T13:33:11.682Z,16.35
2019-02-05T13:35:42.842Z,15.18
2019-02-05T13:38:13.600Z,14.60
2019-02-05T13:40:44.361Z,15.50
2019-02-05T13:43:15.146Z,15.00
2019-02-05T13:45:46.129Z,15.70
2019-02-05T13:48:16.876Z,15.98
2019-02-05T13:50:47.757Z,15.13
2019-02-05T13:53:18.901Z,18.17
2019-02-05T13:55:49.754Z,15.20
2019-02-05T13:58:21.055Z,16.05
2019-02-05T14:00:54.082Z,16.87
2019-02-05T14:03:25.071Z,15.90
2019-02-05T14:05:56.415Z,16.15
2019-02-05T14:08:27.461Z,16.55
2019-02-05T14:10:58.507Z,16.50
2019-02-05T14:13:30.066Z,17.40
2019-02-05T14:16:01.139Z,17.35
2019-02-05T14:18:31.870Z,17.17
2019-02-05T14:21:02.856Z,17.23
2019-02-05T14:23:33.593Z,17.62
2019-02-05T14:26:04.783Z,16.52
2019-02-05T14:28:35.514Z,17.23
2019-02-05T14:31:06.407Z,18.48
2019-02-05T14:33:37.789Z,17.82
2019-02-05T14:36:08.518Z,18.00
2019-02-05T14:38:39.521Z,16.25
2019-02-05T14:41:10.599Z,16.60
2019-02-05T14:43:41.324Z,18.10
2019-02-05T14:46:13.198Z,17.37
2019-02-05T14:48:44.423Z,21.90
2019-02-05T14:51:15.232Z,17.95
2019-02-05T14:53:46.738Z,20.25
2019-02-05T14:56:17.453Z,23.98
2019-02-05T14:58:48.626Z,21.37
2019-02-05T15:01:19.322Z,19.95
2019-02-05T15:03:50.078Z,19.47
2019-02-05T15:06:20.877Z,20.50
2019-02-05T15:08:52.628Z,20.15
2019-02-05T15:11:23.410Z,20.45
2019-02-05T15:13:54.379Z,20.62
2019-02-05T15:16:25.242Z,20.00
2019-02-05T15:18:55.959Z,23.38
2019-02-05T15:21:26.662Z,19.83
2019-02-05T15:23:57.497Z,22.25
2019-02-05T15:26:28.287Z,21.90
2019-02-05T15:28:59.089Z,22.52
2019-02-05T15:31:30.201Z,23.07
2019-02-05T15:34:22.947Z,22.67
2019-02-05T15:36:53.862Z,23.02
2019-02-05T15:39:24.900Z,20.08
2019-02-05T15:41:55.991Z,21.68
2019-02-05T15:44:27.033Z,22.42
2019-02-05T15:46:57.880Z,21.05
2019-02-05T15:49:29.085Z,21.33
2019-02-05T15:51:59.822Z,21.25
2019-02-05T15:54:30.785Z,21.95
2019-02-05T15:57:01.502Z,20.30
2019-02-05T15:59:32.269Z,22.13
2019-02-05T16:02:06.425Z,24.10
2019-02-05T16:04:35.775Z,21.30
2019-02-05T16:07:07.203Z,21.75
2019-02-05T16:09:38.219Z,22.85
2019-02-05T16:12:09.243Z,23.65
2019-02-05T16:14:40.223Z,27.50
2019-02-05T16:17:11.169Z,24.63
2019-02-05T16:19:41.929Z,26.80
2019-02-05T16:22:13.096Z,23.40
2019-02-05T16:24:44.505Z,22.25
2019-02-05T16:27:15.538Z,23.80
2019-02-05T16:29:46.301Z,25.43
2019-02-05T16:32:17.922Z,21.75
2019-02-05T16:34:49.358Z,23.60
2019-02-05T16:37:20.230Z,25.55
2019-02-05T16:39:51.052Z,21.33
2019-02-05T16:42:21.953Z,23.80
2019-02-05T16:44:53.221Z,22.55
2019-02-05T16:47:24.056Z,23.62
2019-02-05T16:49:55.410Z,21.27
2019-02-05T16:52:26.452Z,22.32
2019-02-05T16:54:57.229Z,24.90
2019-02-05T16:57:28.105Z,23.40
2019-02-05T16:59:59.027Z,25.40
2019-02-05T17:02:30.368Z,27.15
2019-02-05T17:05:01.132Z,25.00
2019-02-05T17:07:31.969Z,22.80
2019-02-05T17:10:02.889Z,26.40
2019-02-05T17:12:33.750Z,26.50
2019-02-05T17:15:07.832Z,24.15
2019-02-05T17:17:38.692Z,21.00
2019-02-05T17:20:12.922Z,20.37
2019-02-05T17:22:43.699Z,22.35
2019-02-05T17:25:16.431Z,21.23
2019-02-05T17:27:47.949Z,24.35
2019-02-05T17:30:24.675Z,21.68
2019-02-05T17:32:55.641Z,18.15
2019-02-05T17:35:26.464Z,22.70
2019-02-05T17:37:57.368Z,20.52
2019-02-05T17:40:28.299Z,20.10
2019-02-05T17:43:00.540Z,20.40
2019-02-05T17:45:33.357Z,20.52
2019-02-05T17:48:07.995Z,21.42
2019-02-05T17:50:38.973Z,18.97
2019-02-05T17:53:09.919Z,17.67
2019-02-05T17:55:40.837Z,26.23
2019-02-05T17:58:11.827Z,24.75
2019-02-05T18:00:50.907Z,19.73
2019-02-05T18:03:23.074Z,17.92
2019-02-05T18:05:54.626Z,16.82
2019-02-05T18:08:25.545Z,18.83
2019-02-05T18:10:56.486Z,17.55
2019-02-05T18:13:27.251Z,18.92
2019-02-05T18:16:02.703Z,17.77
2019-02-05T18:18:33.579Z,18.20
2019-02-05T18:21:23.966Z,19.40
2019-02-05T18:23:55.138Z,18.32
2019-02-05T18:26:26.019Z,18.00
2019-02-05T18:28:57.213Z,17.55
2019-02-05T18:31:27.954Z,16.00
2019-02-05T18:33:58.755Z,17.10
2019-02-05T18:36:29.784Z,17.73
2019-02-05T18:39:01.342Z,17.62
2019-02-05T18:41:33.899Z,20.30
2019-02-05T18:44:05.399Z,19.83
2019-02-05T18:46:36.135Z,17.77
2019-02-05T18:49:07.466Z,19.48
2019-02-05T18:51:39.304Z,17.92
2019-02-05T18:54:11.718Z,19.60
2019-02-05T18:56:42.435Z,28.35
2019-02-05T18:59:13.574Z,23.30
2019-02-05T19:01:45.401Z,23.17
2019-02-05T19:04:16.717Z,19.82
2019-02-05T19:06:47.502Z,22.10
2019-02-05T19:09:18.555Z,23.75
2019-02-05T19:11:50.055Z,20.85
2019-02-05T19:14:23.161Z,21.33
2019-02-05T19:16:53.710Z,22.37
2019-02-05T19:19:24.532Z,21.12
2019-02-05T19:21:56.443Z,21.37
2019-02-05T19:24:42.029Z,23.15
2019-02-05T19:27:12.917Z,23.92
2019-02-05T19:29:43.921Z,28.12
2019-02-05T19:32:17.493Z,22.60
2019-02-05T19:34:50.198Z,27.32
2019-02-05T19:37:21.293Z,28.75
2019-02-05T19:39:52.003Z,29.15
2019-02-05T19:42:22.755Z,24.70
2019-02-05T19:45:00.962Z,24.10
2019-02-05T19:47:33.563Z,22.73
2019-02-05T19:50:05.907Z,25.92
2019-02-05T19:52:36.858Z,25.37
2019-02-05T19:55:07.781Z,24.70
2019-02-05T19:57:39.148Z,22.57
2019-02-05T20:00:11.409Z,21.85
2019-02-05T20:02:42.305Z,24.47
2019-02-05T20:05:13.501Z,25.60
2019-02-05T20:07:44.732Z,27.55
2019-02-05T20:10:15.936Z,29.55
2019-02-05T20:12:46.719Z,21.68
2019-02-05T20:15:19.675Z,22.82
2019-02-05T20:17:50.461Z,25.92
2019-02-05T20:20:21.372Z,22.93
2019-02-05T20:22:52.578Z,25.70
2019-02-05T20:25:23.708Z,24.85
2019-02-05T20:27:54.603Z,25.02
2019-02-05T20:30:25.880Z,27.77
2019-02-05T20:32:57.462Z,27.75
2019-02-05T20:35:28.854Z,24.35
2019-02-05T20:38:00.599Z,25.05
2019-02-05T20:40:31.451Z,22.60
2019-02-05T20:43:03.057Z,28.70
2019-02-05T20:45:34.235Z,24.33
2019-02-05T20:48:06.480Z,28.02
2019-02-05T20:50:37.633Z,29.63
2019-02-05T20:53:14.187Z,27.63
2019-02-05T20:55:41.999Z,31.03
2019-02-05T20:58:13.121Z,26.27
2019-02-05T21:00:43.978Z,28.07
2019-02-05T21:03:14.872Z,28.67
2019-02-05T21:05:46.282Z,25.85
2019-02-05T21:08:17.060Z,28.30
2019-02-05T21:10:47.943Z,27.10
2019-02-05T21:13:18.739Z,29.45
2019-02-05T21:15:49.683Z,23.62
2019-02-05T21:18:20.554Z,31.90
2019-02-05T21:20:51.369Z,31.20
2019-02-05T21:23:22.201Z,31.77
2019-02-05T21:25:52.933Z,36.05
2019-02-05T21:28:23.775Z,30.92
2019-02-05T21:30:54.775Z,32.05
2019-02-05T21:33:25.939Z,30.77
2019-02-05T21:35:57.003Z,36.75
2019-02-05T21:38:27.806Z,39.53
2019-02-05T21:40:59.713Z,38.92
2019-02-05T21:43:30.710Z,37.00
2019-02-05T21:46:01.540Z,28.65
2019-02-05T21:48:32.316Z,33.23
2019-02-05T21:51:03.845Z,33.38
2019-02-05T21:53:35.539Z,31.85
2019-02-05T21:56:06.470Z,33.40
2019-02-05T21:58:37.403Z,33.58
2019-02-05T22:01:08.807Z,36.93
2019-02-05T22:03:40.031Z,28.45
2019-02-05T22:06:11.252Z,26.95
2019-02-05T22:08:41.978Z,32.50
2019-02-05T22:11:13.697Z,27.93
2019-02-05T22:13:44.457Z,33.53
2019-02-05T22:16:15.690Z,28.10
2019-02-05T22:18:46.830Z,27.98
2019-02-05T22:21:18.362Z,29.85
2019-02-05T22:23:49.279Z,27.87
2019-02-05T22:26:20.193Z,31.37
2019-02-05T22:28:51.340Z,27.60
2019-02-05T22:31:22.438Z,33.13
2019-02-05T22:33:53.411Z,26.23
2019-02-05T22:36:24.587Z,29.00
2019-02-05T22:38:57.462Z,29.70
2019-02-05T22:41:28.866Z,28.07
2019-02-05T22:43:59.729Z,25.55
2019-02-05T22:46:30.606Z,28.90
2019-02-05T22:49:02.667Z,27.82
2019-02-05T22:51:33.582Z,30.72
2019-02-05T22:54:04.568Z,24.72
2019-02-05T22:56:35.568Z,24.05
2019-02-05T22:59:07.016Z,27.22
2019-02-05T23:01:49.482Z,23.20
2019-02-05T23:04:32.727Z,30.97
2019-02-05T23:07:08.093Z,22.97
2019-02-05T23:09:54.090Z,20.10
2019-02-05T23:12:28.959Z,20.48
2019-02-05T23:15:12.974Z,19.62
2019-02-05T23:17:44.163Z,18.65
2019-02-05T23:20:17.844Z,18.03
2019-02-05T23:22:49.432Z,20.50
2019-02-05T23:25:20.333Z,17.62
2019-02-05T23:27:51.285Z,18.30
2019-02-05T23:30:31.348Z,19.05
2019-02-05T23:33:02.436Z,22.27
2019-02-05T23:35:33.583Z,21.50
2019-02-05T23:38:04.817Z,23.85
2019-02-05T23:40:36.091Z,20.68
2019-02-05T23:43:07.175Z,18.93
2019-02-05T23:45:38.512Z,23.40
2019-02-05T23:48:10.903Z,24.67
2019-02-05T23:50:42.049Z,27.62
2019-02-05T23:53:12.921Z,23.22
2019-02-05T23:55:43.803Z,23.55
2019-02-05T23:58:14.534Z,28.57
